Destinations Faro Airport

Faro Airport (LPFR / FAO)

Flights to Faro Airport

Flight number From ETE Dispatch
SPY-406 EHGG Groningen Airport Eelde 03:35

Flights from Faro Airport

Flight number To ETE Dispatch
SPY-407 EHGG Groningen Airport Eelde
About

Faro Airport facts

Faro Airport is located in Faro at an elevation of 7.3 meters or 24 feet.

Currently, Speedy Airlines serves 2 flights to and from Faro Airport.

Detailed airport info

Route map

Weather

Current weather

METAR

METAR

Metar data retrieved Sunday, 21 July 2024 at 18:55 UTC

LPFR 211830Z 18007KT CAVOK 23/17 Q1013
Wind Temperature
7 kt 23c